N626PC RPVD-RPVB
Flight info
| Callsign | N626PC |
|---|---|
| Flight time | 0h 33m |
| Altitude | 8000 |
| Route | NANA5R NANAS NANA1A |
| Aircraft | AEST/L-SDFGR/S |
Departure
| Time | 2026-05-05 10:29 |
|---|---|
| Airport | Sibulan Airport (RPVD) |
Arrival
| Time | 2026-05-05 11:02 |
|---|---|
| Airport | Bacolod-Silay International Airport (RPVB) |
| Time | Latitude | Longitude | Altitude | Speed | Heading |
|---|---|---|---|---|---|
| 2026-05-05 10:19 | 9.33401 | 123.29365 | 47 ft | 0 kts | 98° |
| 2026-05-05 10:27 | 9.33406 | 123.29374 | 47 ft | 4 kts | 27° |
| 2026-05-05 10:27 | 9.33417 | 123.29376 | 48 ft | 4 kts | 7° |
| 2026-05-05 10:27 | 9.33450 | 123.29380 | 48 ft | 6 kts | 14° |
| 2026-05-05 10:27 | 9.33463 | 123.29397 | 48 ft | 0 kts | 95° |
| 2026-05-05 10:28 | 9.33452 | 123.29599 | 47 ft | 69 kts | 93° |
| 2026-05-05 10:28 | 9.33413 | 123.30241 | 65 ft | 105 kts | 91° |
| 2026-05-05 10:29 | 9.33379 | 123.31025 | 265 ft | 118 kts | 89° |
| 2026-05-05 10:29 | 9.33385 | 123.31876 | 640 ft | 123 kts | 87° |
| 2026-05-05 10:29 | 9.33407 | 123.32756 | 1036 ft | 127 kts | 83° |
| 2026-05-05 10:29 | 9.33791 | 123.33572 | 1334 ft | 137 kts | 41° |
| 2026-05-05 10:30 | 9.34707 | 123.33850 | 1600 ft | 144 kts | 355° |
| 2026-05-05 10:30 | 9.35616 | 123.33461 | 2023 ft | 142 kts | 327° |
| 2026-05-05 10:30 | 9.36358 | 123.32839 | 2466 ft | 136 kts | 320° |
| 2026-05-05 10:30 | 9.37046 | 123.32205 | 2855 ft | 131 kts | 320° |
| 2026-05-05 10:31 | 9.37737 | 123.31566 | 3137 ft | 137 kts | 321° |
| 2026-05-05 10:31 | 9.38465 | 123.30933 | 3409 ft | 140 kts | 322° |
| 2026-05-05 10:31 | 9.39221 | 123.30281 | 3653 ft | 145 kts | 321° |
| 2026-05-05 10:31 | 9.39983 | 123.29593 | 3919 ft | 148 kts | 321° |
| 2026-05-05 10:32 | 9.40750 | 123.28900 | 4198 ft | 148 kts | 321° |
| 2026-05-05 10:32 | 9.41530 | 123.28209 | 4474 ft | 149 kts | 322° |
| 2026-05-05 10:32 | 9.42331 | 123.27533 | 4736 ft | 150 kts | 323° |
| 2026-05-05 10:32 | 9.43127 | 123.26875 | 4993 ft | 150 kts | 324° |
| 2026-05-05 10:33 | 9.43963 | 123.26219 | 5244 ft | 151 kts | 325° |
| 2026-05-05 10:33 | 9.44750 | 123.25533 | 5487 ft | 152 kts | 321° |
| 2026-05-05 10:33 | 9.45540 | 123.24820 | 5733 ft | 152 kts | 322° |
| 2026-05-05 10:33 | 9.46345 | 123.24117 | 5973 ft | 153 kts | 323° |
| 2026-05-05 10:34 | 9.47153 | 123.23421 | 6210 ft | 153 kts | 323° |
| 2026-05-05 10:34 | 9.47909 | 123.22668 | 6418 ft | 153 kts | 309° |
| 2026-05-05 10:34 | 9.48523 | 123.21796 | 6659 ft | 151 kts | 308° |
| 2026-05-05 10:34 | 9.49128 | 123.20925 | 6874 ft | 151 kts | 308° |
| 2026-05-05 10:35 | 9.49734 | 123.20054 | 7076 ft | 151 kts | 308° |
| 2026-05-05 10:35 | 9.50339 | 123.19184 | 7276 ft | 151 kts | 307° |
| 2026-05-05 10:35 | 9.50943 | 123.18316 | 7473 ft | 151 kts | 307° |
| 2026-05-05 10:35 | 9.51552 | 123.17440 | 7633 ft | 154 kts | 308° |
| 2026-05-05 10:36 | 9.52178 | 123.16545 | 7782 ft | 156 kts | 307° |
| 2026-05-05 10:36 | 9.52805 | 123.15646 | 7952 ft | 157 kts | 307° |
| 2026-05-05 10:36 | 9.53443 | 123.14723 | 8051 ft | 164 kts | 308° |
| 2026-05-05 10:36 | 9.54124 | 123.13751 | 8049 ft | 174 kts | 308° |
| 2026-05-05 10:37 | 9.54843 | 123.12722 | 8025 ft | 183 kts | 308° |
| 2026-05-05 10:37 | 9.55593 | 123.11647 | 8012 ft | 190 kts | 307° |
| 2026-05-05 10:37 | 9.56363 | 123.10540 | 8008 ft | 194 kts | 307° |
| 2026-05-05 10:37 | 9.57151 | 123.09407 | 8015 ft | 199 kts | 307° |
| 2026-05-05 10:38 | 9.57960 | 123.08250 | 8022 ft | 203 kts | 307° |
| 2026-05-05 10:38 | 9.58784 | 123.07072 | 8019 ft | 207 kts | 307° |
| 2026-05-05 10:38 | 9.59615 | 123.05870 | 8016 ft | 211 kts | 307° |
| 2026-05-05 10:38 | 9.60466 | 123.04644 | 8016 ft | 213 kts | 307° |
| 2026-05-05 10:39 | 9.61324 | 123.03417 | 8017 ft | 214 kts | 307° |
| 2026-05-05 10:39 | 9.62186 | 123.02183 | 8016 ft | 214 kts | 307° |
| 2026-05-05 10:39 | 9.63103 | 123.00992 | 8021 ft | 216 kts | 318° |
| 2026-05-05 10:39 | 9.64348 | 123.00157 | 8021 ft | 216 kts | 339° |
| 2026-05-05 10:40 | 9.65795 | 122.99812 | 8018 ft | 213 kts | 356° |
| 2026-05-05 10:40 | 9.67252 | 122.99660 | 8012 ft | 212 kts | 356° |
| 2026-05-05 10:40 | 9.68716 | 122.99509 | 8012 ft | 211 kts | 357° |
| 2026-05-05 10:40 | 9.70178 | 122.99369 | 8017 ft | 211 kts | 357° |
| 2026-05-05 10:41 | 9.71636 | 122.99221 | 8014 ft | 211 kts | 357° |
| 2026-05-05 10:41 | 9.73092 | 122.99084 | 8018 ft | 210 kts | 357° |
| 2026-05-05 10:41 | 9.74550 | 122.98947 | 8024 ft | 211 kts | 357° |
| 2026-05-05 10:41 | 9.76014 | 122.98802 | 8016 ft | 211 kts | 357° |
| 2026-05-05 10:42 | 9.78937 | 122.98519 | 8021 ft | 210 kts | 359° |
| 2026-05-05 10:42 | 9.80395 | 122.98541 | 8034 ft | 209 kts | 5° |
| 2026-05-05 10:42 | 9.81847 | 122.98600 | 8025 ft | 209 kts | 5° |
| 2026-05-05 10:43 | 9.83309 | 122.98655 | 8026 ft | 211 kts | 5° |
| 2026-05-05 10:43 | 9.84772 | 122.98710 | 8021 ft | 210 kts | 4° |
| 2026-05-05 10:43 | 9.86233 | 122.98759 | 8024 ft | 211 kts | 5° |
| 2026-05-05 10:43 | 9.87697 | 122.98813 | 8022 ft | 210 kts | 5° |
| 2026-05-05 10:44 | 9.88667 | 122.98846 | 8026 ft | 211 kts | 5° |
| 2026-05-05 10:44 | 9.90131 | 122.98903 | 8024 ft | 210 kts | 5° |
| 2026-05-05 10:44 | 9.92090 | 122.98979 | 8022 ft | 211 kts | 4° |
| 2026-05-05 10:44 | 9.93062 | 122.99011 | 8023 ft | 210 kts | 4° |
| 2026-05-05 10:45 | 9.94522 | 122.99056 | 8024 ft | 210 kts | 5° |
| 2026-05-05 10:45 | 9.95979 | 122.99109 | 8028 ft | 210 kts | 5° |
| 2026-05-05 10:45 | 9.97437 | 122.99166 | 8026 ft | 210 kts | 5° |
| 2026-05-05 10:45 | 9.98892 | 122.99220 | 8029 ft | 209 kts | 4° |
| 2026-05-05 10:46 | 10.00351 | 122.99274 | 8022 ft | 210 kts | 4° |
| 2026-05-05 10:46 | 10.01808 | 122.99324 | 8025 ft | 209 kts | 4° |
| 2026-05-05 10:46 | 10.03264 | 122.99374 | 8029 ft | 209 kts | 4° |
| 2026-05-05 10:46 | 10.04719 | 122.99424 | 8026 ft | 209 kts | 5° |
| 2026-05-05 10:47 | 10.06176 | 122.99484 | 8029 ft | 209 kts | 4° |
| 2026-05-05 10:47 | 10.07634 | 122.99537 | 8025 ft | 210 kts | 4° |
| 2026-05-05 10:47 | 10.09086 | 122.99590 | 8026 ft | 208 kts | 4° |
| 2026-05-05 10:47 | 10.10522 | 122.99635 | 8030 ft | 209 kts | 4° |
| 2026-05-05 10:48 | 10.11977 | 122.99687 | 8026 ft | 209 kts | 5° |
| 2026-05-05 10:48 | 10.13434 | 122.99742 | 8027 ft | 210 kts | 5° |
| 2026-05-05 10:48 | 10.14892 | 122.99798 | 8029 ft | 210 kts | 5° |
| 2026-05-05 10:48 | 10.16378 | 122.99855 | 8031 ft | 212 kts | 4° |
| 2026-05-05 10:49 | 10.17834 | 122.99905 | 8029 ft | 212 kts | 4° |
| 2026-05-05 10:49 | 10.19307 | 122.99956 | 8028 ft | 212 kts | 4° |
| 2026-05-05 10:49 | 10.20783 | 123.00009 | 8034 ft | 212 kts | 4° |
| 2026-05-05 10:49 | 10.22259 | 123.00062 | 8033 ft | 212 kts | 4° |
| 2026-05-05 10:50 | 10.23735 | 123.00116 | 8033 ft | 212 kts | 4° |
| 2026-05-05 10:50 | 10.25216 | 123.00170 | 8030 ft | 212 kts | 4° |
| 2026-05-05 10:50 | 10.26693 | 123.00223 | 8033 ft | 212 kts | 4° |
| 2026-05-05 10:50 | 10.28169 | 123.00278 | 8032 ft | 213 kts | 4° |
| 2026-05-05 10:51 | 10.29650 | 123.00333 | 8034 ft | 212 kts | 4° |
| 2026-05-05 10:51 | 10.31117 | 123.00386 | 8009 ft | 210 kts | 4° |
| 2026-05-05 10:51 | 10.32573 | 123.00440 | 7927 ft | 209 kts | 4° |
| 2026-05-05 10:51 | 10.34030 | 123.00492 | 7821 ft | 210 kts | 4° |
| 2026-05-05 10:52 | 10.35488 | 123.00545 | 7722 ft | 210 kts | 4° |
| 2026-05-05 10:52 | 10.36949 | 123.00599 | 7613 ft | 210 kts | 4° |
| 2026-05-05 10:52 | 10.38409 | 123.00652 | 7507 ft | 210 kts | 4° |
| 2026-05-05 10:52 | 10.39873 | 123.00706 | 7403 ft | 210 kts | 4° |
| 2026-05-05 10:53 | 10.41331 | 123.00758 | 7298 ft | 210 kts | 4° |
| 2026-05-05 10:53 | 10.42768 | 123.00812 | 7194 ft | 209 kts | 4° |
| 2026-05-05 10:53 | 10.44218 | 123.00865 | 7093 ft | 208 kts | 4° |
| 2026-05-05 10:53 | 10.45667 | 123.00918 | 6987 ft | 209 kts | 4° |
| 2026-05-05 10:54 | 10.47120 | 123.00972 | 6887 ft | 209 kts | 4° |
| 2026-05-05 10:54 | 10.48573 | 123.01025 | 6785 ft | 209 kts | 4° |
| 2026-05-05 10:54 | 10.50029 | 123.01078 | 6687 ft | 209 kts | 4° |
| 2026-05-05 10:54 | 10.51484 | 123.01128 | 6594 ft | 209 kts | 4° |
| 2026-05-05 10:55 | 10.52937 | 123.01122 | 6474 ft | 210 kts | 354° |
| 2026-05-05 10:55 | 10.54325 | 123.00648 | 6307 ft | 213 kts | 332° |
| 2026-05-05 10:55 | 10.55460 | 122.99686 | 6138 ft | 215 kts | 310° |
| 2026-05-05 10:55 | 10.56173 | 122.98361 | 5983 ft | 215 kts | 288° |
| 2026-05-05 10:56 | 10.56511 | 122.96901 | 5844 ft | 209 kts | 284° |
| 2026-05-05 10:56 | 10.56898 | 122.95488 | 5663 ft | 206 kts | 287° |
| 2026-05-05 10:56 | 10.57368 | 122.94115 | 5454 ft | 205 kts | 291° |
| 2026-05-05 10:56 | 10.58028 | 122.92830 | 5249 ft | 206 kts | 311° |
| 2026-05-05 10:57 | 10.59175 | 122.92032 | 5054 ft | 199 kts | 342° |
| 2026-05-05 10:57 | 10.60527 | 122.91917 | 4842 ft | 196 kts | 12° |
| 2026-05-05 10:57 | 10.61764 | 122.92444 | 4640 ft | 192 kts | 32° |
| 2026-05-05 10:57 | 10.62884 | 122.93145 | 4520 ft | 184 kts | 33° |
| 2026-05-05 10:58 | 10.63934 | 122.93789 | 4377 ft | 173 kts | 32° |
| 2026-05-05 10:58 | 10.64962 | 122.94401 | 4159 ft | 170 kts | 32° |
| 2026-05-05 10:58 | 10.65975 | 122.95006 | 3948 ft | 167 kts | 32° |
| 2026-05-05 10:58 | 10.66919 | 122.95548 | 3629 ft | 146 kts | 30° |
| 2026-05-05 10:59 | 10.67768 | 122.96028 | 3178 ft | 135 kts | 32° |
| 2026-05-05 10:59 | 10.68557 | 122.96514 | 2721 ft | 130 kts | 35° |
| 2026-05-05 10:59 | 10.69305 | 122.97004 | 2285 ft | 126 kts | 34° |
| 2026-05-05 10:59 | 10.70055 | 122.97438 | 1894 ft | 121 kts | 31° |
| 2026-05-05 11:00 | 10.70760 | 122.97858 | 1596 ft | 113 kts | 33° |
| 2026-05-05 11:00 | 10.71433 | 122.98268 | 1331 ft | 113 kts | 28° |
| 2026-05-05 11:00 | 10.72122 | 122.98631 | 1100 ft | 111 kts | 29° |
| 2026-05-05 11:00 | 10.72774 | 122.99029 | 950 ft | 109 kts | 33° |
| 2026-05-05 11:01 | 10.73422 | 122.99419 | 845 ft | 108 kts | 29° |
| 2026-05-05 11:01 | 10.74083 | 122.99788 | 737 ft | 107 kts | 31° |
| 2026-05-05 11:01 | 10.74710 | 123.00163 | 577 ft | 106 kts | 31° |
| 2026-05-05 11:01 | 10.75334 | 123.00529 | 423 ft | 100 kts | 30° |
| 2026-05-05 11:02 | 10.75926 | 123.00875 | 333 ft | 97 kts | 32° |
| 2026-05-05 11:02 | 10.76506 | 123.01222 | 213 ft | 92 kts | 32° |
| 2026-05-05 11:02 | 10.77007 | 123.01522 | 100 ft | 74 kts | 31° |
| 2026-05-05 11:02 | 10.77341 | 123.01718 | 88 ft | 41 kts | 31° |
| 2026-05-05 11:03 | 10.77540 | 123.01836 | 89 ft | 27 kts | 30° |
| 2026-05-05 11:03 | 10.77636 | 123.01886 | 89 ft | 8 kts | 8° |
| 2026-05-05 11:03 | 10.77697 | 123.01844 | 89 ft | 12 kts | 300° |
| 2026-05-05 11:03 | 10.77740 | 123.01766 | 88 ft | 10 kts | 298° |
| 2026-05-05 11:04 | 10.77723 | 123.01678 | 90 ft | 17 kts | 214° |
| 2026-05-05 11:04 | 10.77608 | 123.01615 | 90 ft | 16 kts | 208° |
| 2026-05-05 11:04 | 10.77498 | 123.01551 | 88 ft | 17 kts | 210° |
| 2026-05-05 11:04 | 10.77400 | 123.01504 | 89 ft | 14 kts | 197° |
| 2026-05-05 11:05 | 10.77325 | 123.01462 | 81 ft | 4 kts | 210° |
| 2026-05-05 11:05 | 10.77261 | 123.01424 | 81 ft | 11 kts | 210° |
| 2026-05-05 11:05 | 10.77260 | 123.01380 | 83 ft | 3 kts | 303° |
| 2026-05-05 11:05 | 10.77286 | 123.01377 | 81 ft | 0 kts | 30° |